createdAt,value
2022-10-13T00:00:53.068Z,101573.13
2022-10-13T00:03:58.753Z,101569.81
2022-10-13T00:07:03.288Z,101566.47
2022-10-13T00:10:12.034Z,101555.13
2022-10-13T00:13:20.998Z,101556.22
2022-10-13T00:16:27.117Z,101554.63
2022-10-13T00:19:35.966Z,101558.13
2022-10-13T00:22:45.953Z,101553.09
2022-10-13T00:26:05.619Z,101547.91
2022-10-13T00:29:11.851Z,101561.06
2022-10-13T00:32:17.530Z,101542.94
2022-10-13T00:35:27.014Z,101548.13
2022-10-13T00:38:32.753Z,101543.03
2022-10-13T00:41:39.529Z,101539.59
2022-10-13T00:45:06.730Z,101543.19
2022-10-13T00:48:14.203Z,101539.81
2022-10-13T00:51:23.841Z,101539.94
2022-10-13T00:54:30.367Z,101537.25
2022-10-13T00:57:37.053Z,101535.66
2022-10-13T01:00:46.835Z,101546.06
2022-10-13T01:03:57.819Z,101538.16
2022-10-13T01:07:02.475Z,101539.00
2022-10-13T01:10:14.738Z,101533.88
2022-10-13T01:13:28.733Z,101538.16
2022-10-13T01:16:52.787Z,101537.34
2022-10-13T01:20:45.152Z,101533.22
2022-10-13T01:24:45.824Z,101529.81
2022-10-13T01:28:10.440Z,101524.38
2022-10-13T01:31:23.569Z,101523.66
2022-10-13T01:34:38.634Z,101513.38
2022-10-13T01:37:49.752Z,101508.88
2022-10-13T01:41:17.959Z,101514.97
2022-10-13T01:44:27.633Z,101506.28
2022-10-13T01:47:38.496Z,101508.97
2022-10-13T01:50:42.299Z,101503.94
2022-10-13T01:53:55.379Z,101498.09
2022-10-13T01:56:58.628Z,101499.84
2022-10-13T02:00:11.763Z,101499.13
2022-10-13T02:03:32.307Z,101499.03
2022-10-13T02:06:45.448Z,101496.50
2022-10-13T02:09:59.165Z,101484.88
2022-10-13T02:13:17.985Z,101476.78
2022-10-13T02:16:23.651Z,101465.03
2022-10-13T02:19:30.008Z,101464.53
2022-10-13T02:22:52.698Z,101461.69
2022-10-13T02:26:06.646Z,101463.22
2022-10-13T02:29:19.086Z,101457.25
2022-10-13T02:32:24.215Z,101460.94
2022-10-13T02:35:38.946Z,101462.75
2022-10-13T02:38:42.551Z,101460.41
2022-10-13T02:41:53.841Z,101459.78
2022-10-13T02:44:59.791Z,101450.94
2022-10-13T02:48:08.262Z,101447.84
2022-10-13T02:51:12.989Z,101444.34
2022-10-13T02:54:16.000Z,101444.59
2022-10-13T02:57:26.599Z,101444.09
2022-10-13T03:00:30.139Z,101443.63
2022-10-13T03:03:37.407Z,101437.50
2022-10-13T03:06:48.050Z,101436.91
2022-10-13T03:09:56.749Z,101447.25
2022-10-13T03:12:59.800Z,101430.38
2022-10-13T03:16:03.325Z,101440.47
2022-10-13T03:19:06.241Z,101428.41
2022-10-13T03:22:14.477Z,101428.56
2022-10-13T03:25:17.671Z,101432.88
2022-10-13T03:28:21.467Z,101424.97
2022-10-13T03:31:27.534Z,101425.06
2022-10-13T03:34:38.057Z,101424.47
2022-10-13T03:37:42.295Z,101413.53
2022-10-13T03:40:45.234Z,101427.44
2022-10-13T03:43:48.507Z,101418.69
2022-10-13T03:46:52.060Z,101416.34
2022-10-13T03:49:56.446Z,101414.91
2022-10-13T03:53:00.676Z,101414.34
2022-10-13T03:56:05.174Z,101405.44
2022-10-13T03:59:12.959Z,101410.50
2022-10-13T04:02:16.052Z,101401.69
2022-10-13T04:05:18.977Z,101403.19
2022-10-13T04:08:23.277Z,101408.28
2022-10-13T04:11:26.451Z,101400.53
2022-10-13T04:14:31.760Z,101402.03
2022-10-13T04:17:44.539Z,101396.53
2022-10-13T04:20:48.119Z,101399.72
2022-10-13T04:23:52.413Z,101397.81
2022-10-13T04:26:55.376Z,101388.97
2022-10-13T04:29:58.600Z,101384.53
2022-10-13T04:33:01.848Z,101381.09
2022-10-13T04:36:05.520Z,101375.09
2022-10-13T04:39:09.769Z,101389.63
2022-10-13T04:42:12.724Z,101377.44
2022-10-13T04:45:16.657Z,101374.66
2022-10-13T04:48:25.542Z,101369.28
2022-10-13T04:51:28.864Z,101365.66
2022-10-13T04:54:33.367Z,101367.28
2022-10-13T04:57:36.353Z,101363.72
2022-10-13T05:00:39.352Z,101357.72
2022-10-13T05:03:42.433Z,101357.66
2022-10-13T05:07:12.638Z,101350.78
2022-10-13T05:10:10.621Z,101342.09
2022-10-13T05:13:13.553Z,101347.13
2022-10-13T05:16:19.039Z,101358.38
2022-10-13T05:19:22.272Z,101339.34
2022-10-13T05:22:25.943Z,101344.44
2022-10-13T05:25:33.708Z,101334.91
2022-10-13T05:28:37.318Z,101346.09
2022-10-13T05:31:44.390Z,101334.09
2022-10-13T05:34:48.906Z,101332.25
2022-10-13T05:37:51.980Z,101333.16
2022-10-13T05:40:56.375Z,101324.47
2022-10-13T05:44:02.027Z,101329.56
2022-10-13T05:47:07.508Z,101317.38
2022-10-13T05:50:11.600Z,101319.88
2022-10-13T05:53:16.188Z,101317.25
2022-10-13T05:56:25.084Z,101315.50
2022-10-13T05:59:30.330Z,101316.19
2022-10-13T06:02:40.290Z,101316.19
2022-10-13T06:05:45.297Z,101310.09
2022-10-13T06:08:48.403Z,101313.47
2022-10-13T06:11:52.738Z,101308.78
2022-10-13T06:14:58.040Z,101310.25
2022-10-13T06:18:01.266Z,101313.50
2022-10-13T06:21:04.404Z,101308.19
2022-10-13T06:24:07.811Z,101311.34
2022-10-13T06:27:12.676Z,101316.41
2022-10-13T06:30:15.928Z,101309.25
2022-10-13T06:33:18.859Z,101309.19
2022-10-13T06:36:21.871Z,101311.56
2022-10-13T06:39:26.370Z,101319.06
2022-10-13T06:42:31.762Z,101326.00
2022-10-13T06:45:45.062Z,101319.69
2022-10-13T06:48:50.942Z,101316.94
2022-10-13T06:51:53.884Z,101323.78
2022-10-13T06:54:56.833Z,101320.53
2022-10-13T06:58:01.455Z,101317.50
2022-10-13T07:01:05.816Z,101318.84
2022-10-13T07:04:09.139Z,101310.63
2022-10-13T07:07:13.502Z,101308.44
2022-10-13T07:10:16.683Z,101300.00
2022-10-13T07:16:25.124Z,101299.56
2022-10-13T07:19:28.599Z,101282.94
2022-10-13T07:22:32.137Z,101288.91
2022-10-13T07:25:35.071Z,101298.19
2022-10-13T07:28:40.386Z,101291.03
2022-10-13T07:31:44.797Z,101293.78
2022-10-13T07:34:47.854Z,101281.88
2022-10-13T07:37:53.679Z,101281.28
2022-10-13T07:40:56.577Z,101286.00
2022-10-13T07:44:00.866Z,101287.22
2022-10-13T07:47:03.812Z,101288.03
2022-10-13T07:50:07.520Z,101286.06
2022-10-13T07:53:10.506Z,101287.56
2022-10-13T07:56:15.764Z,101292.22
2022-10-13T07:59:20.066Z,101284.50
2022-10-13T08:02:23.144Z,101286.28
2022-10-13T08:05:26.270Z,101284.38
2022-10-13T08:08:29.403Z,101286.88
2022-10-13T08:11:32.659Z,101290.13
2022-10-13T08:14:37.248Z,101287.44
2022-10-13T08:17:40.314Z,101284.50
2022-10-13T08:20:45.333Z,101274.84
2022-10-13T08:23:48.602Z,101284.25
2022-10-13T08:26:52.337Z,101294.31
2022-10-13T08:29:56.722Z,101309.19
2022-10-13T08:32:59.666Z,101311.59
2022-10-13T08:36:04.849Z,101312.31
2022-10-13T08:39:08.486Z,101313.88
2022-10-13T08:42:18.773Z,101309.06
2022-10-13T08:45:40.894Z,101318.63
2022-10-13T08:48:44.720Z,101323.78
2022-10-13T08:51:47.769Z,101330.59
2022-10-13T08:54:51.898Z,101327.94
2022-10-13T08:57:56.312Z,101333.41
2022-10-13T09:01:15.385Z,101331.25
2022-10-13T09:04:30.308Z,101338.38
2022-10-13T09:07:38.285Z,101343.91
2022-10-13T09:10:49.806Z,101344.66
2022-10-13T09:13:57.869Z,101347.88
2022-10-13T09:17:19.533Z,101344.41
2022-10-13T09:20:27.586Z,101356.78
2022-10-13T09:23:30.535Z,101354.56
2022-10-13T09:26:39.442Z,101350.91
2022-10-13T09:29:43.440Z,101353.28
2022-10-13T09:32:49.731Z,101355.34
2022-10-13T09:36:13.380Z,101358.22
2022-10-13T09:39:17.903Z,101361.22
2022-10-13T09:42:27.188Z,101362.69
2022-10-13T09:45:34.575Z,101358.94
2022-10-13T09:48:42.318Z,101346.16
2022-10-13T09:51:47.079Z,101350.91
2022-10-13T09:55:00.632Z,101349.91
2022-10-13T09:58:08.238Z,101356.88
2022-10-13T10:01:22.913Z,101357.22
2022-10-13T10:04:35.018Z,101361.16
2022-10-13T10:07:40.350Z,101378.38
2022-10-13T10:10:43.604Z,101362.00
2022-10-13T10:13:46.821Z,101361.81
2022-10-13T10:17:00.871Z,101364.22
2022-10-13T10:20:30.220Z,101364.25
2022-10-13T10:23:44.951Z,101361.09
2022-10-13T10:26:57.142Z,101361.22
2022-10-13T10:30:06.435Z,101356.34
2022-10-13T10:33:14.706Z,101351.00
2022-10-13T10:36:24.223Z,101356.09
2022-10-13T10:39:38.003Z,101352.63
2022-10-13T10:43:01.243Z,101351.66
2022-10-13T10:46:12.824Z,101344.00
2022-10-13T10:49:22.760Z,101347.00
2022-10-13T10:52:34.223Z,101344.94
2022-10-13T10:55:48.322Z,101332.03
2022-10-13T10:59:00.360Z,101340.06
2022-10-13T11:02:20.698Z,101326.06
2022-10-13T11:05:24.129Z,101325.59
2022-10-13T11:08:30.149Z,101320.81
2022-10-13T11:11:39.781Z,101314.13
2022-10-13T11:14:50.199Z,101312.38
2022-10-13T11:17:53.646Z,101313.59
2022-10-13T11:21:00.052Z,101305.78
2022-10-13T11:24:04.321Z,101301.16
2022-10-13T11:27:25.815Z,101307.88
2022-10-13T11:30:49.923Z,101305.03
2022-10-13T11:33:57.310Z,101303.41
2022-10-13T11:37:03.018Z,101314.13
2022-10-13T11:40:23.498Z,101321.19
2022-10-13T11:43:41.212Z,101312.66
2022-10-13T11:47:01.212Z,101311.13
2022-10-13T11:50:16.138Z,101308.66
2022-10-13T11:53:22.600Z,101313.47
2022-10-13T11:56:39.701Z,101296.16
2022-10-13T11:59:48.105Z,101288.09
2022-10-13T12:02:53.984Z,101274.28
2022-10-13T12:06:02.388Z,101277.34
2022-10-13T12:09:15.402Z,101279.66
2022-10-13T12:12:22.319Z,101272.41
2022-10-13T12:15:37.579Z,101267.28
2022-10-13T12:18:41.756Z,101275.63
2022-10-13T12:21:51.232Z,101273.56
2022-10-13T12:25:02.470Z,101273.72
2022-10-13T12:28:08.487Z,101280.94
2022-10-13T12:31:20.631Z,101288.97
2022-10-13T12:34:28.372Z,101288.16
2022-10-13T12:37:34.534Z,101278.03
2022-10-13T12:40:37.730Z,101284.94
2022-10-13T12:43:43.481Z,101279.81
2022-10-13T12:46:48.900Z,101276.34
2022-10-13T12:49:51.859Z,101281.50
2022-10-13T12:53:02.871Z,101281.63
2022-10-13T12:56:06.950Z,101282.03
2022-10-13T12:59:18.775Z,101278.41
2022-10-13T13:02:28.376Z,101282.59
2022-10-13T13:05:33.234Z,101283.69
2022-10-13T13:08:39.920Z,101279.25
2022-10-13T13:11:42.939Z,101275.91
2022-10-13T13:14:51.147Z,101277.84
2022-10-13T13:17:59.364Z,101277.25
2022-10-13T13:21:02.890Z,101280.31
2022-10-13T13:24:16.231Z,101285.88
2022-10-13T13:27:38.146Z,101275.91
2022-10-13T13:30:43.796Z,101278.94
2022-10-13T13:33:47.437Z,101272.59
2022-10-13T13:36:51.401Z,101267.03
2022-10-13T13:39:54.893Z,101271.78
2022-10-13T13:42:57.867Z,101268.41
2022-10-13T13:46:13.731Z,101272.13
2022-10-13T13:49:16.728Z,101259.50
2022-10-13T13:52:20.087Z,101260.78
2022-10-13T13:55:23.390Z,101258.72
2022-10-13T13:58:34.602Z,101258.69
2022-10-13T14:01:42.615Z,101247.63
2022-10-13T14:04:48.290Z,101246.09
2022-10-13T14:07:58.116Z,101251.06
2022-10-13T14:11:08.587Z,101248.75
2022-10-13T14:14:11.787Z,101232.13
2022-10-13T14:17:16.160Z,101235.56
2022-10-13T14:20:19.412Z,101231.84
2022-10-13T14:23:22.380Z,101230.03
2022-10-13T14:26:25.335Z,101218.38
2022-10-13T14:29:28.541Z,101219.22
2022-10-13T14:32:32.820Z,101224.50
2022-10-13T14:35:35.956Z,101222.56
2022-10-13T14:38:40.528Z,101228.13
2022-10-13T14:41:43.461Z,101227.41
2022-10-13T14:44:46.502Z,101224.22
2022-10-13T14:47:53.519Z,101232.94
2022-10-13T14:50:56.606Z,101220.75
2022-10-13T14:54:01.693Z,101228.75
2022-10-13T14:57:05.978Z,101220.44
2022-10-13T15:00:13.927Z,101226.31
2022-10-13T15:03:24.298Z,101227.41
2022-10-13T15:06:28.205Z,101221.31
2022-10-13T15:09:45.478Z,101214.22
2022-10-13T15:12:56.613Z,101214.75
2022-10-13T15:16:06.884Z,101209.50
2022-10-13T15:19:13.905Z,101215.03
2022-10-13T15:22:16.965Z,101199.16
2022-10-13T15:25:19.923Z,101199.44
2022-10-13T15:28:23.703Z,101191.28
2022-10-13T15:31:26.787Z,101188.84
2022-10-13T15:34:31.071Z,101186.66
2022-10-13T15:37:34.103Z,101181.44
2022-10-13T15:40:40.593Z,101175.19
2022-10-13T15:43:43.897Z,101162.63
2022-10-13T15:47:06.702Z,101161.56
2022-10-13T15:50:11.808Z,101165.31
2022-10-13T15:53:14.753Z,101159.47
2022-10-13T15:56:18.245Z,101151.97
2022-10-13T15:59:21.228Z,101145.69
2022-10-13T16:02:24.259Z,101148.41
2022-10-13T16:05:28.639Z,101143.78
2022-10-13T16:08:31.749Z,101146.75
2022-10-13T16:11:34.921Z,101145.78
2022-10-13T16:14:37.893Z,101139.38
2022-10-13T16:17:40.904Z,101135.44
2022-10-13T16:20:45.400Z,101147.91
2022-10-13T16:23:49.385Z,101136.25
2022-10-13T16:26:52.289Z,101142.91
2022-10-13T16:29:55.284Z,101138.13
2022-10-13T16:32:58.745Z,101136.44
2022-10-13T16:36:09.233Z,101131.66
2022-10-13T16:39:13.181Z,101126.78
2022-10-13T16:42:16.125Z,101132.31
2022-10-13T16:45:21.536Z,101122.06
2022-10-13T16:48:34.188Z,101121.06
2022-10-13T16:51:38.471Z,101116.41
2022-10-13T16:54:41.390Z,101116.47
2022-10-13T16:57:44.937Z,101110.84
2022-10-13T17:00:48.046Z,101104.28
2022-10-13T17:03:52.199Z,101104.53
2022-10-13T17:06:56.455Z,101104.75
2022-10-13T17:09:59.499Z,101104.94
2022-10-13T17:13:02.825Z,101104.34
2022-10-13T17:16:08.643Z,101096.13
2022-10-13T17:19:14.208Z,101096.66
2022-10-13T17:22:18.655Z,101089.06
2022-10-13T17:25:21.721Z,101084.88
2022-10-13T17:28:24.824Z,101086.97
2022-10-13T17:31:28.005Z,101082.50
2022-10-13T17:34:30.999Z,101082.91
2022-10-13T17:37:36.900Z,101078.75
2022-10-13T17:40:39.831Z,101087.16
2022-10-13T17:43:44.238Z,101089.25
2022-10-13T17:46:47.653Z,101084.34
2022-10-13T17:49:50.649Z,101091.97
2022-10-13T17:52:56.001Z,101085.28
2022-10-13T17:56:01.671Z,101079.78
2022-10-13T17:59:04.686Z,101080.31
2022-10-13T18:02:07.989Z,101073.69
2022-10-13T18:05:11.031Z,101069.25
2022-10-13T18:08:15.280Z,101065.38
2022-10-13T18:11:21.199Z,101061.41
2022-10-13T18:14:25.790Z,101060.16
2022-10-13T18:17:28.751Z,101060.16
2022-10-13T18:20:31.954Z,101059.66
2022-10-13T18:23:38.072Z,101062.44
2022-10-13T18:26:41.225Z,101054.09
2022-10-13T18:29:44.362Z,101053.59
2022-10-13T18:32:47.359Z,101053.06
2022-10-13T18:35:50.447Z,101052.31
2022-10-13T18:38:57.251Z,101048.69
2022-10-13T18:42:00.179Z,101046.41
2022-10-13T18:45:11.594Z,101044.28
2022-10-13T18:48:14.523Z,101038.34
2022-10-13T18:51:19.443Z,101035.22
2022-10-13T18:54:23.671Z,101032.72
2022-10-13T18:57:26.567Z,101029.38
2022-10-13T19:00:29.634Z,101026.25
2022-10-13T19:03:33.760Z,101016.97
2022-10-13T19:06:37.012Z,101024.25
2022-10-13T19:09:41.250Z,101022.56
2022-10-13T19:12:44.291Z,101018.69
2022-10-13T19:15:47.450Z,101016.41
2022-10-13T19:18:51.122Z,101011.59
2022-10-13T19:21:54.108Z,101018.78
2022-10-13T19:25:00.743Z,101018.03
2022-10-13T19:28:03.679Z,101009.47
2022-10-13T19:31:10.808Z,101012.31
2022-10-13T19:34:14.726Z,101012.50
2022-10-13T19:37:17.859Z,101008.41
2022-10-13T19:40:22.408Z,101011.00
2022-10-13T19:43:25.542Z,101012.16
2022-10-13T19:46:28.518Z,101005.25
2022-10-13T19:49:31.523Z,101003.81
2022-10-13T19:52:34.675Z,101000.47
2022-10-13T19:55:41.227Z,101003.88
2022-10-13T19:58:44.171Z,100998.78
2022-10-13T20:01:47.219Z,100998.91
2022-10-13T20:04:50.134Z,101001.69
2022-10-13T20:07:53.068Z,100998.97
2022-10-13T20:10:57.336Z,100997.72
2022-10-13T20:14:00.520Z,101000.59
2022-10-13T20:17:03.774Z,101003.31
2022-10-13T20:20:08.686Z,101004.41
2022-10-13T20:23:11.822Z,101000.53
2022-10-13T20:26:18.128Z,100998.22
2022-10-13T20:29:21.116Z,100997.59
2022-10-13T20:32:24.091Z,101010.94
2022-10-13T20:35:27.339Z,100996.09
2022-10-13T20:38:30.717Z,101002.63
2022-10-13T20:41:35.069Z,100995.00
2022-10-13T20:44:38.262Z,100994.44
2022-10-13T20:47:41.188Z,100989.63
2022-10-13T20:50:44.355Z,100992.41
2022-10-13T20:53:48.511Z,100998.75
2022-10-13T20:56:52.819Z,100992.78
2022-10-13T20:59:55.779Z,101001.72
2022-10-13T21:03:01.925Z,100994.13
2022-10-13T21:06:10.817Z,100998.66
2022-10-13T21:09:15.259Z,100992.81
2022-10-13T21:12:19.949Z,100992.91
2022-10-13T21:15:22.856Z,100996.53
2022-10-13T21:18:25.847Z,100992.44
2022-10-13T21:21:31.830Z,100987.44
2022-10-13T21:24:34.946Z,100991.03
2022-10-13T21:27:39.228Z,100987.88
2022-10-13T21:30:42.302Z,100985.50
2022-10-13T21:33:46.200Z,100990.59
2022-10-13T21:36:49.117Z,100988.16
2022-10-13T21:39:53.322Z,100986.69
2022-10-13T21:42:57.543Z,100984.25
2022-10-13T21:46:09.906Z,100991.22
2022-10-13T21:49:14.881Z,100992.25
2022-10-13T21:52:17.816Z,100988.44
2022-10-13T21:55:20.799Z,100989.63
2022-10-13T21:58:25.475Z,100999.34
2022-10-13T22:01:30.216Z,100996.03
2022-10-13T22:04:34.834Z,100990.94
2022-10-13T22:07:37.811Z,100994.63
2022-10-13T22:10:40.729Z,100998.31
2022-10-13T22:13:45.274Z,100997.59
2022-10-13T22:16:50.925Z,100991.72
2022-10-13T22:19:53.922Z,100983.38
2022-10-13T22:22:56.849Z,100987.81
2022-10-13T22:26:00.740Z,100986.22
2022-10-13T22:29:07.531Z,100982.88
2022-10-13T22:32:10.568Z,100990.00
2022-10-13T22:35:13.464Z,100991.19
2022-10-13T22:38:16.499Z,100986.00
2022-10-13T22:41:21.222Z,100987.28
2022-10-13T22:44:25.729Z,100979.50
2022-10-13T22:47:28.637Z,100986.63
2022-10-13T22:50:35.571Z,100976.53
2022-10-13T22:53:38.806Z,100970.47
2022-10-13T22:56:43.106Z,100974.81
2022-10-13T22:59:47.811Z,100962.88
2022-10-13T23:02:51.127Z,100963.88
2022-10-13T23:05:54.085Z,100972.59
2022-10-13T23:08:57.780Z,100970.19
2022-10-13T23:12:00.702Z,100968.66
2022-10-13T23:15:07.200Z,100967.00
2022-10-13T23:18:10.125Z,100966.66
2022-10-13T23:21:16.323Z,100960.88
2022-10-13T23:24:19.267Z,100962.03
2022-10-13T23:27:22.980Z,100965.81
2022-10-13T23:30:31.831Z,100960.78
2022-10-13T23:33:38.216Z,100967.25
2022-10-13T23:36:42.916Z,100951.84
2022-10-13T23:39:46.948Z,100944.16
2022-10-13T23:42:53.273Z,100943.31
2022-10-13T23:45:57.660Z,100937.69
2022-10-13T23:49:00.710Z,100937.78
2022-10-13T23:52:08.542Z,100943.81
2022-10-13T23:55:14.079Z,100941.47
2022-10-13T23:58:17.284Z,100933.78
